Time;durP1;ratioP1;P1;durP2;ratioP2;P2;SDS_P1;SDS_P2;PMS_P1;PMS_P2;Temp;Humidity;BMP_temperature;BMP_pressure;BME280_temperature;BME280_humidity;BME280_pressure;Samples;Min_cycle;Max_cycle;Signal;HPM_P1;HPM_P2
2023/10/10 00:02:18;;;;;;;47.40;33.40;;;;;;;;;;2617136;54;20411;-74
2023/10/10 00:04:44;;;;;;;42.20;30.70;;;;;;;;;;2617216;47;20423;-74
2023/10/10 00:07:14;;;;;;;43.10;30.77;;;;;;;;;;2617242;47;20411;-74
2023/10/10 00:09:44;;;;;;;45.40;31.80;;;;;;;;;;2617159;54;20446;-74
2023/10/10 00:12:19;;;;;;;46.20;30.30;;;;;;;;;;2617071;47;20481;-74
2023/10/10 00:14:50;;;;;;;38.93;30.37;;;;;;;;;;2618089;39;20816;-74
2023/10/10 00:17:17;;;;;;;46.73;32.90;;;;;;;;;;2617066;47;20458;-74
2023/10/10 00:19:52;;;;;;;38.70;29.30;;;;;;;;;;2616930;47;20431;-72
2023/10/10 00:22:26;;;;;;;39.30;29.97;;;;;;;;;;2617148;47;20542;-73
2023/10/10 00:24:53;;;;;;;44.00;30.83;;;;;;;;;;2616949;46;20526;-73
2023/10/10 00:27:23;;;;;;;36.63;26.97;;;;;;;;;;2616909;47;20438;-72
2023/10/10 00:30:04;;;;;;;40.93;29.00;;;;;;;;;;2617338;54;20514;-72
2023/10/10 00:32:39;;;;;;;39.80;30.87;;;;;;;;;;2617614;54;20966;-73
2023/10/10 00:35:23;;;;;;;35.17;27.67;;;;;;;;;;2616979;39;20849;-73
2023/10/10 00:37:51;;;;;;;37.90;27.97;;;;;;;;;;2616622;39;20822;-73
2023/10/10 00:40:29;;;;;;;45.43;27.70;;;;;;;;;;2616537;47;20447;-74
2023/10/10 00:42:58;;;;;;;32.50;26.10;;;;;;;;;;2612678;54;20406;-73
2023/10/10 00:45:27;;;;;;;37.00;27.60;;;;;;;;;;2611718;54;20419;-73
2023/10/10 00:47:54;;;;;;;38.50;28.37;;;;;;;;;;2612669;54;20427;-74
2023/10/10 00:50:25;;;;;;;36.23;27.00;;;;;;;;;;2612882;39;20834;-73
2023/10/10 00:52:53;;;;;;;36.40;28.93;;;;;;;;;;2612197;54;20438;-76
2023/10/10 00:55:22;;;;;;;37.87;28.27;;;;;;;;;;2612101;54;21014;-76
2023/10/10 00:57:52;;;;;;;37.20;29.73;;;;;;;;;;2611317;54;20414;-77
2023/10/10 01:00:20;;;;;;;38.30;31.40;;;;;;;;;;2611864;54;20451;-75
2023/10/10 01:02:53;;;;;;;39.07;29.60;;;;;;;;;;2612132;54;20419;-75
2023/10/10 01:05:23;;;;;;;41.10;31.77;;;;;;;;;;2612413;54;20508;-76
2023/10/10 01:07:51;;;;;;;43.07;30.77;;;;;;;;;;2612070;54;20426;-77
2023/10/10 01:10:17;;;;;;;35.93;29.83;;;;;;;;;;2611380;54;20981;-76
2023/10/10 01:12:46;;;;;;;38.13;31.03;;;;;;;;;;2611631;54;20511;-76
2023/10/10 01:15:24;;;;;;;43.53;31.57;;;;;;;;;;2612049;39;21201;-76
2023/10/10 01:17:51;;;;;;;42.73;31.40;;;;;;;;;;2612481;54;21425;-76
2023/10/10 01:20:18;;;;;;;39.77;30.80;;;;;;;;;;2611925;39;20783;-76
2023/10/10 01:22:48;;;;;;;45.23;31.23;;;;;;;;;;2612265;54;20403;-76
2023/10/10 01:28:01;;;;;;;34.50;29.07;;;;;;;;;;2612355;54;20374;-77
2023/10/10 01:33:36;;;;;;;39.93;30.80;;;;;;;;;;2611255;47;20419;-75
2023/10/10 01:36:11;;;;;;;43.07;32.87;;;;;;;;;;2611583;46;20527;-76
2023/10/10 01:38:56;;;;;;;46.90;30.60;;;;;;;;;;2611218;54;20498;-75
2023/10/10 01:41:31;;;;;;;43.43;32.53;;;;;;;;;;2611791;54;20419;-77
2023/10/10 01:44:10;;;;;;;38.47;31.70;;;;;;;;;;2612350;54;21441;-76
2023/10/10 01:46:36;;;;;;;47.70;34.27;;;;;;;;;;2611668;54;21153;-77
2023/10/10 01:49:03;;;;;;;43.67;32.60;;;;;;;;;;2611655;54;20404;-76
2023/10/10 01:51:33;;;;;;;40.33;33.53;;;;;;;;;;2611341;39;20812;-76
2023/10/10 01:53:59;;;;;;;50.57;34.93;;;;;;;;;;2611187;54;20451;-75
2023/10/10 01:56:28;;;;;;;49.93;36.00;;;;;;;;;;2611848;54;20404;-77
2023/10/10 01:58:55;;;;;;;48.40;34.70;;;;;;;;;;2611550;54;20424;-76
2023/10/10 02:01:31;;;;;;;45.20;37.03;;;;;;;;;;2613034;46;20436;-73
2023/10/10 02:04:27;;;;;;;54.00;36.50;;;;;;;;;;2616589;54;20391;-73
2023/10/10 02:06:57;;;;;;;58.07;37.73;;;;;;;;;;2616099;47;20426;-74
2023/10/10 02:12:33;;;;;;;56.20;39.80;;;;;;;;;;2617226;54;20962;-73
2023/10/10 02:15:01;;;;;;;50.30;38.83;;;;;;;;;;2616641;47;20431;-73
2023/10/10 02:17:30;;;;;;;50.97;38.30;;;;;;;;;;2617155;39;20799;-73
2023/10/10 02:20:10;;;;;;;51.57;38.63;;;;;;;;;;2616293;46;20575;-74
2023/10/10 02:23:09;;;;;;;52.30;38.20;;;;;;;;;;2617146;54;20407;-73
2023/10/10 02:28:19;;;;;;;49.33;38.47;;;;;;;;;;2616713;54;21054;-73
2023/10/10 02:30:49;;;;;;;54.37;38.37;;;;;;;;;;2616448;47;20411;-74
2023/10/10 02:35:57;;;;;;;54.23;39.07;;;;;;;;;;2611558;54;20514;-76
2023/10/10 02:38:23;;;;;;;62.97;39.90;;;;;;;;;;2611286;47;21298;-75
2023/10/10 02:40:55;;;;;;;58.47;40.10;;;;;;;;;;2610985;54;20434;-76
2023/10/10 02:43:33;;;;;;;51.77;40.87;;;;;;;;;;2611517;54;20438;-74
2023/10/10 02:46:00;;;;;;;52.90;40.30;;;;;;;;;;2611551;54;20981;-77
2023/10/10 02:48:34;;;;;;;57.17;41.03;;;;;;;;;;2610590;47;20443;-78
2023/10/10 02:51:03;;;;;;;46.70;39.20;;;;;;;;;;2610318;47;20491;-77
2023/10/10 02:53:32;;;;;;;53.17;38.33;;;;;;;;;;2611440;54;20442;-75
2023/10/10 02:56:01;;;;;;;49.37;37.73;;;;;;;;;;2610939;54;20402;-77
2023/10/10 02:58:36;;;;;;;55.03;41.77;;;;;;;;;;2610779;54;20425;-75
2023/10/10 03:01:04;;;;;;;52.23;40.97;;;;;;;;;;2610889;47;20415;-75
2023/10/10 03:03:30;;;;;;;51.37;41.27;;;;;;;;;;2611111;39;21103;-76
2023/10/10 03:05:58;;;;;;;55.57;36.83;;;;;;;;;;2611693;54;21037;-77
2023/10/10 03:11:00;;;;;;;56.47;39.30;;;;;;;;;;2611396;54;20524;-74
2023/10/10 03:13:37;;;;;;;45.83;33.83;;;;;;;;;;2610676;46;20443;-76
2023/10/10 03:29:27;;;;;;;43.53;37.10;;;;;;;;;;2611370;54;20469;-76
2023/10/10 03:32:22;;;;;;;47.50;36.67;;;;;;;;;;2611320;54;20499;-76
2023/10/10 03:34:45;;;;;;;53.47;38.10;;;;;;;;;;2611835;47;20427;-76
2023/10/10 03:37:54;;;;;;;45.67;36.03;;;;;;;;;;2610844;54;20412;-76
2023/10/10 05:25:23;;;;;;;116.97;56.53;;;;;;;;;;2611445;54;20407;-75
2023/10/10 05:27:52;;;;;;;111.73;57.47;;;;;;;;;;2611575;51;20427;-75
2023/10/10 05:30:25;;;;;;;104.53;55.30;;;;;;;;;;2611708;50;20437;-74
2023/10/10 05:33:01;;;;;;;97.53;55.80;;;;;;;;;;2612584;54;20428;-72
2023/10/10 05:35:34;;;;;;;111.30;58.43;;;;;;;;;;2612671;54;20400;-74
2023/10/10 05:38:01;;;;;;;108.50;58.13;;;;;;;;;;2613264;54;20420;-80
2023/10/10 05:40:28;;;;;;;121.33;63.20;;;;;;;;;;2612018;54;20422;-72
2023/10/10 05:42:54;;;;;;;96.80;57.07;;;;;;;;;;2611926;46;20418;-72
2023/10/10 05:45:20;;;;;;;120.40;59.40;;;;;;;;;;2613073;54;20438;-73
2023/10/10 05:47:47;;;;;;;105.07;57.37;;;;;;;;;;2611328;54;20394;-72
2023/10/10 05:50:13;;;;;;;106.83;58.73;;;;;;;;;;2611227;54;20985;-73
2023/10/10 05:52:40;;;;;;;95.77;61.37;;;;;;;;;;2612449;46;20427;-73
2023/10/10 05:55:07;;;;;;;96.03;59.00;;;;;;;;;;2613003;54;20614;-73
2023/10/10 05:57:34;;;;;;;111.10;61.67;;;;;;;;;;2611296;54;20519;-74
2023/10/10 06:00:00;;;;;;;111.53;61.67;;;;;;;;;;2611029;54;20391;-74
2023/10/10 06:02:27;;;;;;;101.67;59.87;;;;;;;;;;2611509;54;20422;-72
2023/10/10 06:04:53;;;;;;;107.80;63.47;;;;;;;;;;2612092;54;20503;-72
2023/10/10 06:07:20;;;;;;;114.37;59.57;;;;;;;;;;2611352;54;20398;-71
2023/10/10 06:09:51;;;;;;;98.87;55.50;;;;;;;;;;2611554;54;20412;-75
2023/10/10 06:12:19;;;;;;;105.73;58.30;;;;;;;;;;2612648;54;20427;-73
2023/10/10 06:14:47;;;;;;;95.63;57.80;;;;;;;;;;2609123;39;20811;-74
2023/10/10 06:17:13;;;;;;;104.47;58.00;;;;;;;;;;2611500;39;20798;-74
2023/10/10 06:19:39;;;;;;;96.03;56.90;;;;;;;;;;2609687;47;20447;-75
2023/10/10 06:22:08;;;;;;;94.77;56.67;;;;;;;;;;2610950;54;20412;-74
2023/10/10 06:24:39;;;;;;;96.37;57.10;;;;;;;;;;2611881;54;20403;-74
2023/10/10 06:27:08;;;;;;;88.43;56.50;;;;;;;;;;2611697;46;20495;-73
2023/10/10 06:29:35;;;;;;;94.20;56.20;;;;;;;;;;2610935;47;20411;-73
2023/10/10 06:32:03;;;;;;;86.30;58.27;;;;;;;;;;2610875;39;20535;-72
2023/10/10 06:34:34;;;;;;;88.77;55.23;;;;;;;;;;2610263;54;20431;-71
2023/10/10 06:37:07;;;;;;;83.90;53.87;;;;;;;;;;2612249;39;20748;-72
2023/10/10 06:39:55;;;;;;;79.23;51.80;;;;;;;;;;2612186;48;20462;-72
2023/10/10 06:42:27;;;;;;;89.33;55.40;;;;;;;;;;2613434;54;20414;-73
2023/10/10 06:44:54;;;;;;;77.53;51.70;;;;;;;;;;2612370;54;20598;-71
2023/10/10 06:47:21;;;;;;;88.53;49.60;;;;;;;;;;2611027;54;20444;-73
2023/10/10 06:49:56;;;;;;;83.30;53.03;;;;;;;;;;2611263;54;20439;-73
2023/10/10 06:52:23;;;;;;;84.47;50.50;;;;;;;;;;2610510;54;20411;-76
2023/10/10 06:54:56;;;;;;;70.23;48.87;;;;;;;;;;2610105;31;20930;-74
2023/10/10 06:57:52;;;;;;;72.10;46.97;;;;;;;;;;2611128;54;20542;-75
2023/10/10 07:00:21;;;;;;;67.00;45.30;;;;;;;;;;2608308;54;20446;-75
2023/10/10 07:02:50;;;;;;;63.70;44.37;;;;;;;;;;2606899;54;20519;-74
2023/10/10 07:05:20;;;;;;;50.27;40.27;;;;;;;;;;2609695;54;20423;-74
2023/10/10 07:07:56;;;;;;;60.50;40.00;;;;;;;;;;2609044;46;20455;-75
2023/10/10 07:10:26;;;;;;;58.40;39.80;;;;;;;;;;2608943;47;20470;-77
2023/10/10 07:12:57;;;;;;;53.37;36.27;;;;;;;;;;2611292;54;20528;-76
2023/10/10 07:15:24;;;;;;;43.47;34.57;;;;;;;;;;2610475;47;20557;-76
2023/10/10 07:18:04;;;;;;;48.73;35.20;;;;;;;;;;2611077;54;20422;-75
2023/10/10 07:23:20;;;;;;;42.73;35.53;;;;;;;;;;2610509;54;20411;-76
2023/10/10 07:25:58;;;;;;;37.70;30.80;;;;;;;;;;2611211;39;20901;-74
2023/10/10 07:28:26;;;;;;;40.57;29.60;;;;;;;;;;2611005;39;20847;-74
2023/10/10 07:30:52;;;;;;;39.20;30.07;;;;;;;;;;2610691;54;20447;-76
2023/10/10 07:33:23;;;;;;;35.07;29.50;;;;;;;;;;2612019;54;20511;-75
2023/10/10 07:36:00;;;;;;;35.27;30.90;;;;;;;;;;2611992;54;20411;-76
2023/10/10 07:38:29;;;;;;;32.73;28.53;;;;;;;;;;2612073;54;21189;-76
2023/10/10 07:40:55;;;;;;;30.30;27.40;;;;;;;;;;2612137;54;20427;-74
2023/10/10 07:43:27;;;;;;;35.70;28.53;;;;;;;;;;2610599;47;20404;-75
2023/10/10 07:45:56;;;;;;;30.63;27.50;;;;;;;;;;2611836;54;20423;-74
2023/10/10 07:51:06;;;;;;;34.17;28.00;;;;;;;;;;2612004;54;20427;-75
2023/10/10 07:53:40;;;;;;;30.50;27.30;;;;;;;;;;2610409;47;20420;-74
2023/10/10 07:56:07;;;;;;;29.60;26.47;;;;;;;;;;2610814;54;20402;-74
2023/10/10 07:58:56;;;;;;;30.10;26.90;;;;;;;;;;2609814;46;20446;-74
2023/10/10 08:01:23;;;;;;;28.37;25.50;;;;;;;;;;2610087;54;20415;-76
2023/10/10 08:03:49;;;;;;;29.13;24.70;;;;;;;;;;2610363;39;20798;-74
2023/10/10 08:06:21;;;;;;;27.50;24.60;;;;;;;;;;2611127;54;20439;-73
2023/10/10 08:08:56;;;;;;;36.37;24.70;;;;;;;;;;2611425;54;20414;-73
2023/10/10 08:11:35;;;;;;;26.63;24.00;;;;;;;;;;2609770;53;20410;-75
2023/10/10 08:14:05;;;;;;;25.07;22.60;;;;;;;;;;2610404;54;21061;-75
2023/10/10 08:16:33;;;;;;;25.43;22.73;;;;;;;;;;2611295;47;21011;-75
2023/10/10 08:19:04;;;;;;;25.30;22.63;;;;;;;;;;2612221;39;20754;-75
2023/10/10 08:21:38;;;;;;;26.17;23.47;;;;;;;;;;2611917;54;20415;-75
2023/10/10 08:24:04;;;;;;;24.53;22.20;;;;;;;;;;2611386;39;20871;-74
2023/10/10 08:26:38;;;;;;;23.97;21.47;;;;;;;;;;2611831;46;20474;-75
2023/10/10 08:29:06;;;;;;;27.33;22.73;;;;;;;;;;2610881;54;20404;-75
2023/10/10 08:31:33;;;;;;;26.73;23.80;;;;;;;;;;2612901;54;20392;-75
2023/10/10 08:34:01;;;;;;;23.77;21.53;;;;;;;;;;2610989;54;20407;-75
2023/10/10 08:36:27;;;;;;;23.40;20.77;;;;;;;;;;2613368;54;20455;-75
2023/10/10 08:38:54;;;;;;;23.47;20.80;;;;;;;;;;2612565;54;20443;-73
2023/10/10 08:41:27;;;;;;;22.20;19.87;;;;;;;;;;2611945;47;21289;-75
2023/10/10 08:44:06;;;;;;;22.23;20.07;;;;;;;;;;2612309;54;20448;-76
2023/10/10 08:46:40;;;;;;;22.30;19.97;;;;;;;;;;2613288;54;20396;-72
2023/10/10 08:49:07;;;;;;;20.50;18.63;;;;;;;;;;2612814;54;20415;-75
2023/10/10 08:51:34;;;;;;;24.73;17.87;;;;;;;;;;2611927;54;20428;-74
2023/10/10 08:54:09;;;;;;;20.57;18.50;;;;;;;;;;2611581;39;20831;-74
2023/10/10 08:56:37;;;;;;;19.27;17.37;;;;;;;;;;2612059;47;20415;-75
2023/10/10 08:59:16;;;;;;;19.53;17.73;;;;;;;;;;2611738;54;20504;-75
2023/10/10 09:01:42;;;;;;;19.87;17.20;;;;;;;;;;2611268;54;20442;-74
2023/10/10 09:04:17;;;;;;;17.77;16.03;;;;;;;;;;2612491;50;20435;-72
2023/10/10 09:06:58;;;;;;;20.63;17.20;;;;;;;;;;2613432;39;20986;-72
2023/10/10 09:09:40;;;;;;;16.23;14.70;;;;;;;;;;2613071;54;20392;-73
2023/10/10 09:12:14;;;;;;;17.30;15.60;;;;;;;;;;2612072;54;20402;-74
2023/10/10 09:14:41;;;;;;;17.13;15.63;;;;;;;;;;2611061;54;20526;-73
2023/10/10 09:17:12;;;;;;;17.33;15.77;;;;;;;;;;2612510;54;20407;-74
2023/10/10 09:19:39;;;;;;;16.30;14.80;;;;;;;;;;2612669;51;20399;-73
2023/10/10 09:22:12;;;;;;;17.43;15.73;;;;;;;;;;2611954;47;21092;-75
2023/10/10 09:24:41;;;;;;;16.77;15.23;;;;;;;;;;2611901;54;20448;-74
2023/10/10 09:27:21;;;;;;;16.30;14.70;;;;;;;;;;2612794;54;20983;-74
2023/10/10 09:29:54;;;;;;;15.70;14.30;;;;;;;;;;2612285;54;20403;-74
2023/10/10 09:32:27;;;;;;;16.63;15.30;;;;;;;;;;2612612;54;20411;-73
2023/10/10 09:34:54;;;;;;;15.80;14.53;;;;;;;;;;2611384;54;20415;-73
2023/10/10 09:37:29;;;;;;;16.63;15.33;;;;;;;;;;2610984;54;20411;-71
2023/10/10 09:39:56;;;;;;;15.00;14.07;;;;;;;;;;2611653;54;20454;-74
2023/10/10 09:44:53;;;;;;;17.43;14.80;;;;;;;;;;2611673;54;20431;-73
2023/10/10 09:52:53;;;;;;;16.17;14.80;;;;;;;;;;2611725;54;20407;-75
2023/10/10 09:55:39;;;;;;;15.27;14.07;;;;;;;;;;2612028;54;20447;-74
2023/10/10 10:05:58;;;;;;;14.13;13.17;;;;;;;;;;2611724;54;20401;-73
2023/10/10 10:08:37;;;;;;;15.87;14.67;;;;;;;;;;2611572;54;20546;-73
2023/10/10 10:11:11;;;;;;;16.40;15.10;;;;;;;;;;2611686;54;20411;-74
2023/10/10 10:13:48;;;;;;;14.97;13.77;;;;;;;;;;2611255;46;21362;-75
2023/10/10 10:16:25;;;;;;;15.73;14.47;;;;;;;;;;2611255;54;20432;-74
2023/10/10 10:19:11;;;;;;;15.80;14.33;;;;;;;;;;2612383;54;20424;-74
2023/10/10 10:21:52;;;;;;;16.10;14.90;;;;;;;;;;2611617;39;21395;-75
2023/10/10 10:24:26;;;;;;;15.67;14.17;;;;;;;;;;2611089;54;20913;-74
2023/10/10 10:27:12;;;;;;;17.47;16.17;;;;;;;;;;2610187;49;20446;-74
2023/10/10 10:29:42;;;;;;;15.33;14.23;;;;;;;;;;2612363;54;20416;-73
2023/10/10 10:32:10;;;;;;;16.10;14.90;;;;;;;;;;2612691;54;21347;-74
2023/10/10 10:34:45;;;;;;;15.97;14.77;;;;;;;;;;2612039;46;20460;-74
2023/10/10 10:37:20;;;;;;;15.60;14.60;;;;;;;;;;2611747;54;20409;-74
2023/10/10 10:42:37;;;;;;;15.57;14.23;;;;;;;;;;2611588;54;20386;-74
2023/10/10 10:45:33;;;;;;;16.50;15.13;;;;;;;;;;2612472;39;20824;-72
2023/10/10 10:47:59;;;;;;;15.27;13.93;;;;;;;;;;2612535;47;20415;-73
2023/10/10 10:50:29;;;;;;;14.77;13.77;;;;;;;;;;2612138;54;20423;-73
2023/10/10 10:52:59;;;;;;;17.77;15.90;;;;;;;;;;2612574;54;20467;-74
2023/10/10 10:55:29;;;;;;;15.03;13.90;;;;;;;;;;2610907;54;20451;-72
2023/10/10 10:58:07;;;;;;;15.73;14.53;;;;;;;;;;2611335;54;20431;-73
2023/10/10 11:03:35;;;;;;;15.53;14.37;;;;;;;;;;2611516;54;20415;-74
2023/10/10 11:06:06;;;;;;;14.90;13.60;;;;;;;;;;2612119;54;20528;-73
2023/10/10 11:14:00;;;;;;;15.50;14.10;;;;;;;;;;2612102;54;20388;-74
2023/10/10 11:16:37;;;;;;;15.10;14.00;;;;;;;;;;2611534;54;20424;-75
2023/10/10 11:19:38;;;;;;;15.13;14.13;;;;;;;;;;2611770;54;20519;-73
2023/10/10 11:22:00;;;;;;;15.73;14.73;;;;;;;;;;2611425;54;20511;-72
2023/10/10 11:24:29;;;;;;;16.10;15.00;;;;;;;;;;2613481;54;20420;-74
2023/10/10 11:29:42;;;;;;;15.70;14.50;;;;;;;;;;2611137;54;20399;-76
2023/10/10 11:32:11;;;;;;;15.10;14.00;;;;;;;;;;2610028;54;20415;-73
2023/10/10 11:34:44;;;;;;;14.83;13.83;;;;;;;;;;2610542;54;20472;-76
2023/10/10 11:37:21;;;;;;;15.13;13.93;;;;;;;;;;2610585;54;20387;-75
2023/10/10 11:39:48;;;;;;;16.57;15.27;;;;;;;;;;2609262;47;20424;-74
2023/10/10 11:42:26;;;;;;;16.80;15.43;;;;;;;;;;2610397;54;20440;-76
2023/10/10 11:45:02;;;;;;;17.10;15.70;;;;;;;;;;2610883;47;20462;-76
2023/10/10 11:47:28;;;;;;;18.00;15.50;;;;;;;;;;2610947;54;20450;-76
2023/10/10 11:50:00;;;;;;;16.33;15.13;;;;;;;;;;2610600;39;21185;-74
2023/10/10 11:52:27;;;;;;;15.87;14.83;;;;;;;;;;2607397;54;20403;-76
2023/10/10 11:54:58;;;;;;;16.10;14.70;;;;;;;;;;2612468;54;20577;-74
2023/10/10 11:57:34;;;;;;;16.07;15.03;;;;;;;;;;2615769;46;20420;-74
2023/10/10 12:00:11;;;;;;;15.80;14.50;;;;;;;;;;2614644;54;20414;-74
2023/10/10 12:02:41;;;;;;;15.90;14.87;;;;;;;;;;2615218;54;20419;-74
2023/10/10 12:08:07;;;;;;;16.80;15.63;;;;;;;;;;2614922;54;20431;-75
2023/10/10 12:10:47;;;;;;;16.77;15.53;;;;;;;;;;2615011;54;20427;-75
2023/10/10 12:13:20;;;;;;;16.13;15.07;;;;;;;;;;2615969;47;20416;-74
2023/10/10 12:15:50;;;;;;;18.33;16.93;;;;;;;;;;2615327;54;20443;-75
2023/10/10 12:18:17;;;;;;;17.33;15.63;;;;;;;;;;2615050;46;20430;-75
2023/10/10 12:21:10;;;;;;;15.57;14.60;;;;;;;;;;2615934;46;20938;-74
2023/10/10 12:23:38;;;;;;;17.40;15.90;;;;;;;;;;2614821;54;20422;-74
2023/10/10 12:26:04;;;;;;;15.97;14.43;;;;;;;;;;2614150;54;20435;-73
2023/10/10 12:28:31;;;;;;;16.50;15.40;;;;;;;;;;2614269;54;20470;-74
2023/10/10 12:31:02;;;;;;;17.30;16.00;;;;;;;;;;2614710;39;20912;-73
2023/10/10 12:33:29;;;;;;;16.07;14.97;;;;;;;;;;2614683;54;20427;-74
2023/10/10 12:35:56;;;;;;;15.50;14.37;;;;;;;;;;2611378;47;20431;-72
2023/10/10 12:38:23;;;;;;;16.33;15.13;;;;;;;;;;2610225;54;20535;-73
2023/10/10 12:40:49;;;;;;;15.97;14.73;;;;;;;;;;2610408;54;20411;-73
2023/10/10 12:43:15;;;;;;;16.10;14.63;;;;;;;;;;2611524;54;20404;-73
2023/10/10 12:45:41;;;;;;;16.57;15.10;;;;;;;;;;2610865;49;20427;-72
2023/10/10 12:48:13;;;;;;;16.27;15.07;;;;;;;;;;2610385;39;20958;-72
2023/10/10 12:50:44;;;;;;;15.93;14.63;;;;;;;;;;2610443;39;21202;-75
2023/10/10 12:53:15;;;;;;;15.07;14.13;;;;;;;;;;2610001;46;20454;-71
2023/10/10 12:55:52;;;;;;;16.07;14.77;;;;;;;;;;2605898;39;20820;-73
2023/10/10 12:58:22;;;;;;;17.17;15.97;;;;;;;;;;2610394;39;20796;-73
2023/10/10 13:00:52;;;;;;;16.07;14.80;;;;;;;;;;2608514;54;20485;-75
2023/10/10 13:03:23;;;;;;;16.90;15.10;;;;;;;;;;2607182;54;20419;-71
2023/10/10 13:05:52;;;;;;;16.53;15.23;;;;;;;;;;2608673;54;20400;-74
2023/10/10 13:08:22;;;;;;;18.03;16.40;;;;;;;;;;2610389;54;20418;-75
2023/10/10 13:10:55;;;;;;;17.27;15.97;;;;;;;;;;2611264;54;20408;-75
2023/10/10 13:13:27;;;;;;;15.27;14.20;;;;;;;;;;2611991;54;20430;-74
2023/10/10 13:16:22;;;;;;;15.93;14.93;;;;;;;;;;2611274;54;20470;-73
2023/10/10 13:18:49;;;;;;;16.83;15.50;;;;;;;;;;2610901;54;20420;-73
2023/10/10 13:21:16;;;;;;;19.13;17.33;;;;;;;;;;2611440;52;20982;-74
2023/10/10 13:23:43;;;;;;;16.87;15.43;;;;;;;;;;2611927;39;20442;-74
2023/10/10 13:26:10;;;;;;;18.00;16.67;;;;;;;;;;2611444;54;20420;-75
2023/10/10 13:28:38;;;;;;;17.37;15.57;;;;;;;;;;2611478;54;20423;-75
2023/10/10 13:31:04;;;;;;;16.90;15.63;;;;;;;;;;2610872;54;20412;-74
2023/10/10 13:33:30;;;;;;;16.00;14.77;;;;;;;;;;2612185;54;20427;-75
2023/10/10 13:35:56;;;;;;;17.70;15.97;;;;;;;;;;2612134;54;20436;-74
2023/10/10 13:38:25;;;;;;;15.63;14.20;;;;;;;;;;2612160;54;20957;-74
2023/10/10 13:40:51;;;;;;;15.50;14.10;;;;;;;;;;2611249;54;21323;-73
2023/10/10 13:43:17;;;;;;;16.00;14.53;;;;;;;;;;2611819;54;20442;-75
2023/10/10 13:45:44;;;;;;;15.93;14.73;;;;;;;;;;2611763;54;20543;-76
2023/10/10 13:48:14;;;;;;;15.50;14.40;;;;;;;;;;2610712;51;20430;-75
2023/10/10 13:50:44;;;;;;;15.90;14.60;;;;;;;;;;2611059;54;20486;-75
2023/10/10 13:53:14;;;;;;;17.80;15.97;;;;;;;;;;2612582;39;21442;-76
2023/10/10 13:55:43;;;;;;;16.67;15.30;;;;;;;;;;2612871;54;20459;-76
2023/10/10 13:58:11;;;;;;;15.67;14.30;;;;;;;;;;2611164;54;20451;-77
2023/10/10 14:00:39;;;;;;;16.73;15.63;;;;;;;;;;2610934;54;20411;-76
2023/10/10 14:03:05;;;;;;;15.63;14.53;;;;;;;;;;2609816;47;20408;-75
2023/10/10 14:05:33;;;;;;;18.63;16.33;;;;;;;;;;2611405;54;20438;-77
2023/10/10 14:08:02;;;;;;;16.83;15.50;;;;;;;;;;2610426;47;20412;-76
2023/10/10 14:10:39;;;;;;;16.13;14.70;;;;;;;;;;2611590;54;20434;-76
2023/10/10 14:13:23;;;;;;;16.33;15.23;;;;;;;;;;2611187;54;20419;-76
2023/10/10 14:16:01;;;;;;;17.10;15.60;;;;;;;;;;2609849;54;20462;-75
2023/10/10 14:18:27;;;;;;;16.87;15.57;;;;;;;;;;2610960;54;20491;-77
2023/10/10 14:20:53;;;;;;;16.50;15.30;;;;;;;;;;2610662;47;20942;-78
2023/10/10 14:23:23;;;;;;;17.67;16.23;;;;;;;;;;2611121;54;20428;-76
2023/10/10 14:25:49;;;;;;;16.53;15.03;;;;;;;;;;2611646;54;20403;-74
2023/10/10 14:28:16;;;;;;;15.50;14.10;;;;;;;;;;2611193;54;20875;-74
2023/10/10 14:30:49;;;;;;;15.57;14.57;;;;;;;;;;2611196;54;20506;-75
2023/10/10 14:33:18;;;;;;;17.20;15.60;;;;;;;;;;2611301;51;20435;-76
2023/10/10 14:35:45;;;;;;;16.87;15.40;;;;;;;;;;2612100;54;21300;-74
2023/10/10 14:38:16;;;;;;;16.93;15.60;;;;;;;;;;2612024;54;20510;-75
2023/10/10 14:40:45;;;;;;;18.03;16.50;;;;;;;;;;2613253;54;20384;-74
2023/10/10 14:43:12;;;;;;;15.67;14.77;;;;;;;;;;2612385;39;20776;-74
2023/10/10 14:45:42;;;;;;;17.07;15.57;;;;;;;;;;2608340;54;20945;-74
2023/10/10 14:48:09;;;;;;;16.37;14.77;;;;;;;;;;2608538;54;20427;-74
2023/10/10 14:50:39;;;;;;;16.23;14.93;;;;;;;;;;2607646;54;20406;-75
2023/10/10 14:53:10;;;;;;;15.20;14.13;;;;;;;;;;2607182;31;21062;-74
2023/10/10 14:55:39;;;;;;;16.00;14.70;;;;;;;;;;2611961;54;20455;-74
2023/10/10 14:58:13;;;;;;;18.07;16.13;;;;;;;;;;2614046;47;20523;-74
2023/10/10 15:00:44;;;;;;;17.20;15.90;;;;;;;;;;2615604;54;20426;-74
2023/10/10 15:03:19;;;;;;;15.77;14.50;;;;;;;;;;2616241;54;20396;-74
2023/10/10 15:05:49;;;;;;;16.33;14.80;;;;;;;;;;2615152;51;21020;-74
2023/10/10 15:08:27;;;;;;;15.90;14.70;;;;;;;;;;2615569;54;20415;-74
2023/10/10 15:10:59;;;;;;;17.07;15.50;;;;;;;;;;2614993;54;20408;-75
2023/10/10 15:13:28;;;;;;;16.00;14.70;;;;;;;;;;2615108;39;20451;-75
2023/10/10 15:15:56;;;;;;;16.07;14.60;;;;;;;;;;2614890;54;20963;-74
2023/10/10 15:18:23;;;;;;;16.27;14.87;;;;;;;;;;2614384;54;20414;-75
2023/10/10 15:20:49;;;;;;;15.80;14.47;;;;;;;;;;2613906;54;20427;-74
2023/10/10 15:23:18;;;;;;;15.97;14.67;;;;;;;;;;2613025;54;20427;-74
2023/10/10 15:26:06;;;;;;;16.50;15.00;;;;;;;;;;2614218;54;20410;-75
2023/10/10 15:28:32;;;;;;;15.90;14.70;;;;;;;;;;2612233;54;20441;-74
2023/10/10 15:30:59;;;;;;;15.00;13.70;;;;;;;;;;2614338;39;20805;-74
2023/10/10 15:33:29;;;;;;;15.10;13.90;;;;;;;;;;2615366;39;20884;-74
2023/10/10 15:35:55;;;;;;;16.63;14.97;;;;;;;;;;2612459;46;20437;-74
2023/10/10 15:38:22;;;;;;;16.40;14.97;;;;;;;;;;2610121;54;20406;-76
2023/10/10 15:40:52;;;;;;;22.90;16.97;;;;;;;;;;2610266;54;20428;-77
2023/10/10 15:43:18;;;;;;;17.00;15.63;;;;;;;;;;2609814;39;20806;-75
2023/10/10 15:45:44;;;;;;;16.70;15.40;;;;;;;;;;2611307;54;20499;-76
2023/10/10 15:48:23;;;;;;;17.77;16.20;;;;;;;;;;2612382;54;20442;-75
2023/10/10 15:50:53;;;;;;;16.67;15.17;;;;;;;;;;2612245;54;20985;-77
2023/10/10 15:53:26;;;;;;;16.33;14.73;;;;;;;;;;2613227;54;21445;-76
2023/10/10 15:56:10;;;;;;;15.10;13.80;;;;;;;;;;2612725;54;20447;-76
2023/10/10 15:58:44;;;;;;;16.40;15.00;;;;;;;;;;2612960;54;20415;-76
2023/10/10 16:01:11;;;;;;;14.20;13.07;;;;;;;;;;2612385;54;20403;-75
2023/10/10 16:03:38;;;;;;;16.60;14.97;;;;;;;;;;2611274;54;20411;-78
2023/10/10 16:06:08;;;;;;;17.23;14.23;;;;;;;;;;2614572;54;20414;-74
2023/10/10 16:08:35;;;;;;;15.90;14.60;;;;;;;;;;2614920;47;20554;-74
2023/10/10 16:11:08;;;;;;;15.93;14.43;;;;;;;;;;2615194;47;20430;-75
2023/10/10 16:13:36;;;;;;;16.07;14.47;;;;;;;;;;2615721;54;20466;-74
2023/10/10 16:16:06;;;;;;;19.53;14.80;;;;;;;;;;2615882;54;20424;-75
2023/10/10 16:18:35;;;;;;;16.00;14.63;;;;;;;;;;2615893;54;20419;-74
2023/10/10 16:21:08;;;;;;;16.67;15.40;;;;;;;;;;2615943;54;20399;-74
2023/10/10 16:23:43;;;;;;;16.37;15.07;;;;;;;;;;2615483;54;20954;-74
2023/10/10 16:26:11;;;;;;;16.70;15.27;;;;;;;;;;2615643;47;20941;-74
2023/10/10 16:28:37;;;;;;;16.40;15.27;;;;;;;;;;2616210;54;20424;-74
2023/10/10 16:31:07;;;;;;;17.17;15.23;;;;;;;;;;2616107;47;20411;-73
2023/10/10 16:33:38;;;;;;;16.73;15.20;;;;;;;;;;2616518;54;20419;-73
2023/10/10 16:36:08;;;;;;;16.43;15.07;;;;;;;;;;2616011;47;20388;-74
2023/10/10 16:38:38;;;;;;;15.67;14.13;;;;;;;;;;2615897;54;20507;-75
2023/10/10 16:41:06;;;;;;;16.00;14.57;;;;;;;;;;2615713;46;20404;-74
2023/10/10 16:43:37;;;;;;;16.03;14.37;;;;;;;;;;2615879;47;20914;-74
2023/10/10 16:46:12;;;;;;;14.37;13.23;;;;;;;;;;2615465;54;20519;-79
2023/10/10 16:48:39;;;;;;;15.43;14.27;;;;;;;;;;2612649;47;20999;-76
2023/10/10 16:51:08;;;;;;;15.23;13.70;;;;;;;;;;2613887;54;20495;-76
2023/10/10 16:53:34;;;;;;;16.67;15.27;;;;;;;;;;2612570;54;20446;-75
2023/10/10 16:56:06;;;;;;;15.47;14.57;;;;;;;;;;2613746;54;20438;-74
2023/10/10 16:58:33;;;;;;;15.33;14.13;;;;;;;;;;2613621;46;20458;-76
2023/10/10 17:01:03;;;;;;;15.23;14.13;;;;;;;;;;2613308;54;20430;-77
2023/10/10 17:03:32;;;;;;;20.20;14.70;;;;;;;;;;2613364;39;20783;-76
2023/10/10 17:05:59;;;;;;;16.67;15.07;;;;;;;;;;2608963;54;20404;-74
2023/10/10 17:08:25;;;;;;;16.90;15.30;;;;;;;;;;2611738;54;20939;-75
2023/10/10 17:10:51;;;;;;;16.30;14.90;;;;;;;;;;2612636;54;20429;-77
2023/10/10 17:13:17;;;;;;;14.87;13.70;;;;;;;;;;2612231;54;20407;-75
2023/10/10 17:15:47;;;;;;;17.17;15.80;;;;;;;;;;2611696;54;20424;-75
2023/10/10 17:18:13;;;;;;;16.40;14.90;;;;;;;;;;2611433;39;20861;-73
2023/10/10 17:20:39;;;;;;;16.17;14.43;;;;;;;;;;2612677;39;20913;-73
2023/10/10 17:23:06;;;;;;;16.03;14.43;;;;;;;;;;2612499;54;20428;-75
2023/10/10 17:25:37;;;;;;;15.00;13.80;;;;;;;;;;2612659;54;20399;-77
2023/10/10 17:28:04;;;;;;;17.57;16.07;;;;;;;;;;2612829;54;20406;-78
2023/10/10 17:30:30;;;;;;;15.37;14.20;;;;;;;;;;2612964;54;20431;-77
2023/10/10 17:32:56;;;;;;;16.10;14.80;;;;;;;;;;2612787;54;20423;-78